createdAt,value
2023-05-04T00:02:24.841Z,85.40
2023-05-04T00:05:13.897Z,85.00
2023-05-04T00:08:04.475Z,84.70
2023-05-04T00:10:54.478Z,85.40
2023-05-04T00:13:43.253Z,85.40
2023-05-04T00:16:32.239Z,85.90
2023-05-04T00:19:21.252Z,86.10
2023-05-04T00:22:10.219Z,87.20
2023-05-04T00:25:00.353Z,87.40
2023-05-04T00:27:49.464Z,87.20
2023-05-04T00:30:38.171Z,87.30
2023-05-04T00:33:26.947Z,88.30
2023-05-04T00:36:15.718Z,87.90
2023-05-04T00:39:04.920Z,88.80
2023-05-04T00:41:55.119Z,89.90
2023-05-04T00:44:45.020Z,89.30
2023-05-04T00:47:34.295Z,89.30
2023-05-04T00:50:23.297Z,88.90
2023-05-04T00:53:12.800Z,88.30
2023-05-04T00:56:02.640Z,88.90
2023-05-04T00:58:54.979Z,89.60
2023-05-04T01:01:43.979Z,89.80
2023-05-04T01:04:33.236Z,90.40
2023-05-04T01:07:28.835Z,90.10
2023-05-04T01:10:22.213Z,90.40
2023-05-04T01:13:13.666Z,90.80
2023-05-04T01:16:04.833Z,90.90
2023-05-04T01:18:53.688Z,91.10
2023-05-04T01:21:43.963Z,91.40
2023-05-04T01:24:33.224Z,91.70
2023-05-04T01:27:27.582Z,91.80
2023-05-04T01:30:20.717Z,92.00
2023-05-04T01:33:10.991Z,91.80
2023-05-04T01:36:00.600Z,91.70
2023-05-04T01:38:51.049Z,91.20
2023-05-04T01:41:41.652Z,91.80
2023-05-04T01:44:30.629Z,91.30
2023-05-04T01:47:19.669Z,91.40
2023-05-04T01:50:09.387Z,91.40
2023-05-04T01:52:58.206Z,91.40
2023-05-04T01:55:49.029Z,91.50
2023-05-04T01:58:38.321Z,92.30
2023-05-04T02:01:27.350Z,92.30
2023-05-04T02:04:16.230Z,92.30
2023-05-04T02:07:04.974Z,92.70
2023-05-04T02:09:53.689Z,92.60
2023-05-04T02:12:46.408Z,92.80
2023-05-04T02:15:35.184Z,92.70
2023-05-04T02:18:23.878Z,92.90
2023-05-04T02:21:13.014Z,93.10
2023-05-04T02:24:07.127Z,92.30
2023-05-04T02:26:55.986Z,92.40
2023-05-04T02:29:46.097Z,92.20
2023-05-04T02:32:34.987Z,92.30
2023-05-04T02:35:24.099Z,92.10
2023-05-04T02:38:12.948Z,92.20
2023-05-04T02:41:02.125Z,92.60
2023-05-04T02:43:51.191Z,93.10
2023-05-04T02:46:41.584Z,92.50
2023-05-04T02:49:30.313Z,93.10
2023-05-04T02:52:19.195Z,93.20
2023-05-04T02:55:08.518Z,93.40
2023-05-04T02:57:57.420Z,93.50
2023-05-04T03:00:46.412Z,94.00
2023-05-04T03:03:36.692Z,93.70
2023-05-04T03:06:25.458Z,93.80
2023-05-04T03:09:14.342Z,93.70
2023-05-04T03:12:03.936Z,93.60
2023-05-04T03:14:53.159Z,93.30
2023-05-04T03:17:42.178Z,93.90
2023-05-04T03:20:32.603Z,93.60
2023-05-04T03:23:23.299Z,93.40
2023-05-04T03:26:12.206Z,93.50
2023-05-04T03:29:01.123Z,93.20
2023-05-04T03:31:50.145Z,93.50
2023-05-04T03:34:40.047Z,93.10
2023-05-04T03:37:31.990Z,93.10
2023-05-04T03:40:23.114Z,93.40
2023-05-04T03:43:14.294Z,93.10
2023-05-04T03:46:05.936Z,93.00
2023-05-04T03:48:54.672Z,93.20
2023-05-04T03:51:43.823Z,93.30
2023-05-04T03:54:34.224Z,92.60
2023-05-04T03:57:24.442Z,92.40
2023-05-04T04:00:16.491Z,92.00
2023-05-04T04:03:11.022Z,91.40
2023-05-04T04:06:00.914Z,91.30
2023-05-04T04:08:49.735Z,91.40
2023-05-04T04:11:40.206Z,91.70
2023-05-04T04:14:28.976Z,91.70
2023-05-04T04:17:17.916Z,91.50
2023-05-04T04:20:08.139Z,92.10
2023-05-04T04:22:56.966Z,92.00
2023-05-04T04:25:46.259Z,92.00
2023-05-04T04:28:36.890Z,92.60
2023-05-04T04:31:25.776Z,93.20
2023-05-04T04:34:14.642Z,93.30
2023-05-04T04:37:03.678Z,93.40
2023-05-04T04:39:52.626Z,93.70
2023-05-04T04:42:42.011Z,93.60
2023-05-04T04:45:33.828Z,93.10
2023-05-04T04:48:23.700Z,93.50
2023-05-04T04:51:13.481Z,93.10
2023-05-04T04:54:02.309Z,93.00
2023-05-04T04:56:51.228Z,92.70
2023-05-04T04:59:39.961Z,91.90
2023-05-04T05:02:30.125Z,91.70
2023-05-04T05:05:19.251Z,90.80
2023-05-04T05:08:08.089Z,88.90
2023-05-04T05:10:57.509Z,84.80
2023-05-04T05:13:46.240Z,86.70
2023-05-04T05:16:35.318Z,84.00
2023-05-04T05:19:26.355Z,85.90
2023-05-04T05:22:15.242Z,85.40
2023-05-04T05:25:04.777Z,87.50
2023-05-04T05:27:53.962Z,87.60
2023-05-04T05:30:43.028Z,85.40
2023-05-04T05:33:32.418Z,85.70
2023-05-04T05:36:22.738Z,85.00
2023-05-04T05:39:11.586Z,84.10
2023-05-04T05:42:00.357Z,83.70
2023-05-04T05:44:49.489Z,81.10
2023-05-04T05:47:38.391Z,81.00
2023-05-04T05:50:27.200Z,79.20
2023-05-04T05:53:17.508Z,79.70
2023-05-04T05:56:06.449Z,80.90
2023-05-04T05:58:55.248Z,80.00
2023-05-04T06:01:44.039Z,74.60
2023-05-04T06:04:32.966Z,71.40
2023-05-04T06:07:22.149Z,71.60
2023-05-04T06:10:12.758Z,72.40
2023-05-04T06:13:01.738Z,75.00
2023-05-04T06:15:54.016Z,77.50
2023-05-04T06:18:42.888Z,77.30
2023-05-04T06:21:32.144Z,79.60
2023-05-04T06:24:21.794Z,80.40
2023-05-04T06:27:12.375Z,79.10
2023-05-04T06:30:01.691Z,74.40
2023-05-04T06:32:50.390Z,67.80
2023-05-04T06:35:39.212Z,67.90
2023-05-04T06:38:28.034Z,71.80
2023-05-04T06:41:17.029Z,74.00
2023-05-04T06:44:07.825Z,71.80
2023-05-04T06:46:56.645Z,74.40
2023-05-04T06:49:45.510Z,73.90
2023-05-04T06:52:34.447Z,72.90
2023-05-04T06:55:23.320Z,73.30
2023-05-04T06:58:12.631Z,72.60
2023-05-04T07:01:03.618Z,71.30
2023-05-04T07:03:52.678Z,70.00
2023-05-04T07:06:41.725Z,68.90
2023-05-04T07:09:30.926Z,68.20
2023-05-04T07:12:19.891Z,69.00
2023-05-04T07:15:09.877Z,67.20
2023-05-04T07:18:00.126Z,66.20
2023-05-04T07:20:48.930Z,65.50
2023-05-04T07:23:37.988Z,65.80
2023-05-04T07:26:27.061Z,64.30
2023-05-04T07:29:16.109Z,59.30
2023-05-04T07:32:05.183Z,61.30
2023-05-04T07:34:55.574Z,60.40
2023-05-04T07:37:44.311Z,60.00
2023-05-04T07:40:33.545Z,58.70
2023-05-04T07:43:22.474Z,60.00
2023-05-04T07:46:11.409Z,61.70
2023-05-04T07:49:00.236Z,57.90
2023-05-04T07:51:51.177Z,56.20
2023-05-04T07:54:40.022Z,56.30
2023-05-04T07:57:28.877Z,56.80
2023-05-04T08:00:18.799Z,57.10
2023-05-04T08:03:07.583Z,58.10
2023-05-04T08:05:56.337Z,57.60
2023-05-04T08:08:50.904Z,54.90
2023-05-04T08:11:41.463Z,54.80
2023-05-04T08:14:30.404Z,53.60
2023-05-04T08:17:19.562Z,53.70
2023-05-04T08:20:09.857Z,53.50
2023-05-04T08:22:58.633Z,53.20
2023-05-04T08:25:48.716Z,52.00
2023-05-04T08:28:38.864Z,51.50
2023-05-04T08:31:28.113Z,54.10
2023-05-04T08:34:16.985Z,55.20
2023-05-04T08:37:05.925Z,52.50
2023-05-04T08:39:54.754Z,52.60
2023-05-04T08:42:48.158Z,51.00
2023-05-04T08:45:39.782Z,50.90
2023-05-04T08:48:28.797Z,51.90
2023-05-04T08:51:17.998Z,53.20
2023-05-04T08:54:11.021Z,54.10
2023-05-04T08:57:00.037Z,54.40
2023-05-04T08:59:52.645Z,55.70
2023-05-04T09:02:41.797Z,54.80
2023-05-04T09:05:31.079Z,51.80
2023-05-04T09:08:21.162Z,52.20
2023-05-04T09:11:10.202Z,48.40
2023-05-04T09:13:58.961Z,48.90
2023-05-04T09:16:49.228Z,50.60
2023-05-04T09:19:39.413Z,48.70
2023-05-04T09:22:28.953Z,47.20
2023-05-04T09:25:17.815Z,50.10
2023-05-04T09:28:06.586Z,48.50
2023-05-04T09:31:02.792Z,48.60
2023-05-04T09:33:53.703Z,46.70
2023-05-04T09:36:43.320Z,47.50
2023-05-04T09:42:21.668Z,45.10
2023-05-04T09:45:12.647Z,45.40
2023-05-04T09:48:01.689Z,43.10
2023-05-04T09:50:53.263Z,43.40
2023-05-04T09:53:43.583Z,45.20
2023-05-04T09:56:40.050Z,45.50
2023-05-04T09:59:32.104Z,45.70
2023-05-04T10:02:23.277Z,47.20
2023-05-04T10:05:16.219Z,47.10
2023-05-04T10:08:07.194Z,46.90
2023-05-04T10:10:56.367Z,47.80
2023-05-04T10:13:45.347Z,47.30
2023-05-04T10:16:43.656Z,48.90
2023-05-04T10:19:49.084Z,48.30
2023-05-04T10:22:58.389Z,48.30
2023-05-04T10:26:08.412Z,50.00
2023-05-04T10:29:09.335Z,50.40
2023-05-04T10:31:59.751Z,50.40
2023-05-04T10:34:49.412Z,47.10
2023-05-04T10:37:38.846Z,47.90
2023-05-04T10:40:37.905Z,49.50
2023-05-04T10:43:30.334Z,50.80
2023-05-04T10:46:21.429Z,49.80
2023-05-04T10:49:17.874Z,50.00
2023-05-04T10:52:12.721Z,50.30
2023-05-04T10:55:02.714Z,46.00
2023-05-04T10:57:53.035Z,43.30
2023-05-04T11:00:44.866Z,43.10
2023-05-04T11:03:40.993Z,41.70
2023-05-04T11:06:29.909Z,43.40
2023-05-04T11:09:20.216Z,45.90
2023-05-04T11:12:11.007Z,47.10
2023-05-04T11:15:08.131Z,46.40
2023-05-04T11:17:58.516Z,44.50
2023-05-04T11:20:47.302Z,44.40
2023-05-04T11:23:36.135Z,42.20
2023-05-04T11:26:25.274Z,38.80
2023-05-04T11:29:14.783Z,36.50
2023-05-04T11:32:03.747Z,35.50
2023-05-04T11:34:53.873Z,35.00
2023-05-04T11:37:44.520Z,33.80
2023-05-04T11:40:33.684Z,32.30
2023-05-04T11:43:22.964Z,30.40
2023-05-04T11:46:12.971Z,29.00
2023-05-04T11:49:02.540Z,29.50
2023-05-04T11:51:53.157Z,29.50
2023-05-04T11:54:42.811Z,29.10
2023-05-04T11:57:32.589Z,29.10
2023-05-04T12:00:22.062Z,28.50
2023-05-04T12:03:13.430Z,27.80
2023-05-04T12:06:04.027Z,28.30
2023-05-04T12:09:03.733Z,28.20
2023-05-04T12:11:56.760Z,27.80
2023-05-04T12:14:52.064Z,29.90
2023-05-04T12:17:42.147Z,31.10
2023-05-04T12:20:32.036Z,32.30
2023-05-04T12:23:20.722Z,30.40
2023-05-04T12:26:11.743Z,34.60
2023-05-04T12:29:00.722Z,33.80
2023-05-04T12:31:49.770Z,37.00
2023-05-04T12:34:39.045Z,37.40
2023-05-04T12:37:27.726Z,39.50
2023-05-04T12:40:27.825Z,39.70
2023-05-04T12:43:22.892Z,40.40
2023-05-04T12:46:11.949Z,40.90
2023-05-04T12:49:01.036Z,41.10
2023-05-04T12:51:50.448Z,42.70
2023-05-04T12:54:39.210Z,42.70
2023-05-04T12:57:27.969Z,43.40
2023-05-04T13:00:18.836Z,43.80
2023-05-04T13:03:07.819Z,44.00
2023-05-04T13:05:57.051Z,44.40
2023-05-04T13:08:47.329Z,44.70
2023-05-04T13:11:36.205Z,45.50
2023-05-04T13:14:25.035Z,45.60
2023-05-04T13:17:15.850Z,45.40
2023-05-04T13:20:06.297Z,45.70
2023-05-04T13:22:58.228Z,45.80
2023-05-04T13:25:47.253Z,45.50
2023-05-04T13:28:37.925Z,46.00
2023-05-04T13:31:28.084Z,46.80
2023-05-04T13:34:18.319Z,46.20
2023-05-04T13:37:07.210Z,45.60
2023-05-04T13:39:56.523Z,46.30
2023-05-04T13:42:45.358Z,45.80
2023-05-04T13:45:34.959Z,46.40
2023-05-04T13:48:25.928Z,47.50
2023-05-04T13:51:16.625Z,46.50
2023-05-04T13:54:05.772Z,46.60
2023-05-04T13:56:54.474Z,46.30
2023-05-04T13:59:48.765Z,46.30
2023-05-04T14:02:47.481Z,47.50
2023-05-04T14:05:36.774Z,48.40
2023-05-04T14:08:27.561Z,49.00
2023-05-04T14:11:16.422Z,47.30
2023-05-04T14:14:05.306Z,46.50
2023-05-04T14:16:54.194Z,46.50
2023-05-04T14:19:42.971Z,47.50
2023-05-04T14:22:31.994Z,48.00
2023-05-04T14:25:22.562Z,47.50
2023-05-04T14:28:11.305Z,48.00
2023-05-04T14:31:08.647Z,47.80
2023-05-04T14:33:57.525Z,49.00
2023-05-04T14:36:46.478Z,47.50
2023-05-04T14:39:35.260Z,47.50
2023-05-04T14:42:25.395Z,48.60
2023-05-04T14:45:14.549Z,48.60
2023-05-04T14:48:03.733Z,47.90
2023-05-04T14:50:52.733Z,48.00
2023-05-04T14:53:41.530Z,48.70
2023-05-04T14:56:30.264Z,48.50
2023-05-04T14:59:20.353Z,47.60
2023-05-04T15:02:09.355Z,47.80
2023-05-04T15:04:58.148Z,47.00
2023-05-04T15:07:47.013Z,47.90
2023-05-04T15:10:36.030Z,47.90
2023-05-04T15:13:24.782Z,47.40
2023-05-04T15:16:18.860Z,47.90
2023-05-04T15:19:08.276Z,47.40
2023-05-04T15:21:57.084Z,47.70
2023-05-04T15:24:45.810Z,49.10
2023-05-04T15:27:34.645Z,47.30
2023-05-04T15:30:23.638Z,47.50
2023-05-04T15:33:13.797Z,48.70
2023-05-04T15:36:07.934Z,47.30
2023-05-04T15:38:56.749Z,48.20
2023-05-04T15:41:45.594Z,49.40
2023-05-04T15:44:34.292Z,49.60
2023-05-04T15:47:23.067Z,48.20
2023-05-04T15:50:13.447Z,48.50
2023-05-04T15:53:02.400Z,48.80
2023-05-04T15:55:51.849Z,49.00
2023-05-04T15:58:40.703Z,48.90
2023-05-04T16:01:29.458Z,48.80
2023-05-04T16:04:18.705Z,49.00
2023-05-04T16:07:08.910Z,49.70
2023-05-04T16:09:59.029Z,49.30
2023-05-04T16:12:47.909Z,49.40
2023-05-04T16:15:37.016Z,49.50
2023-05-04T16:18:25.882Z,49.10
2023-05-04T16:21:15.573Z,48.90
2023-05-04T16:24:07.785Z,50.60
2023-05-04T16:26:56.601Z,49.50
2023-05-04T16:29:45.427Z,49.50
2023-05-04T16:32:34.152Z,49.90
2023-05-04T16:35:23.157Z,49.30
2023-05-04T16:38:13.324Z,49.00
2023-05-04T16:41:03.561Z,50.50
2023-05-04T16:43:52.853Z,51.00
2023-05-04T16:46:42.038Z,50.20
2023-05-04T16:49:32.320Z,50.30
2023-05-04T16:52:21.361Z,49.60
2023-05-04T16:55:12.448Z,49.90
2023-05-04T16:58:03.300Z,50.00
2023-05-04T17:00:52.088Z,50.40
2023-05-04T17:03:40.970Z,51.10
2023-05-04T17:06:29.811Z,50.90
2023-05-04T17:09:18.628Z,51.30
2023-05-04T17:12:07.747Z,52.20
2023-05-04T17:14:58.347Z,54.10
2023-05-04T17:17:47.253Z,54.10
2023-05-04T17:20:36.031Z,53.90
2023-05-04T17:23:24.831Z,53.30
2023-05-04T17:26:13.495Z,53.40
2023-05-04T17:29:02.309Z,52.80
2023-05-04T17:31:52.547Z,53.40
2023-05-04T17:34:41.417Z,54.40
2023-05-04T17:40:19.845Z,53.20
2023-05-04T17:43:08.568Z,53.60
2023-05-04T17:45:57.433Z,53.40
2023-05-04T17:48:47.663Z,54.50
2023-05-04T17:54:25.413Z,53.70
2023-05-04T17:57:14.215Z,55.30
2023-05-04T18:00:05.498Z,55.40
2023-05-04T18:02:54.612Z,55.00
2023-05-04T18:05:46.151Z,56.40
2023-05-04T18:08:34.890Z,55.90
2023-05-04T18:11:23.598Z,56.10
2023-05-04T18:14:12.311Z,56.70
2023-05-04T18:17:01.311Z,55.90
2023-05-04T18:19:50.024Z,56.40
2023-05-04T18:22:40.210Z,56.90
2023-05-04T18:25:29.061Z,56.40
2023-05-04T18:28:17.932Z,57.60
2023-05-04T18:31:06.893Z,57.20
2023-05-04T18:33:55.626Z,58.00
2023-05-04T18:36:44.396Z,57.70
2023-05-04T18:39:34.578Z,57.60
2023-05-04T18:42:23.546Z,57.20
2023-05-04T18:45:13.225Z,57.50
2023-05-04T18:48:02.329Z,57.60
2023-05-04T18:50:57.349Z,58.20
2023-05-04T18:53:47.110Z,57.40
2023-05-04T18:56:37.368Z,57.80
2023-05-04T18:59:26.173Z,58.80
2023-05-04T19:02:17.547Z,59.10
2023-05-04T19:05:06.977Z,59.20
2023-05-04T19:07:55.771Z,58.30
2023-05-04T19:10:44.409Z,59.00
2023-05-04T19:13:34.532Z,59.50
2023-05-04T19:16:23.386Z,59.20
2023-05-04T19:19:12.229Z,58.90
2023-05-04T19:22:01.460Z,60.00
2023-05-04T19:24:51.889Z,59.80
2023-05-04T19:27:40.746Z,60.20
2023-05-04T19:30:31.208Z,60.30
2023-05-04T19:33:20.086Z,60.30
2023-05-04T19:36:08.888Z,61.30
2023-05-04T19:38:57.649Z,60.90
2023-05-04T19:41:46.466Z,61.20
2023-05-04T19:44:35.250Z,62.30
2023-05-04T19:47:25.823Z,62.10
2023-05-04T19:50:15.908Z,61.80
2023-05-04T19:53:04.875Z,62.30
2023-05-04T19:55:53.619Z,62.60
2023-05-04T19:58:42.283Z,62.80
2023-05-04T20:01:31.395Z,62.00
2023-05-04T20:04:21.839Z,63.60
2023-05-04T20:07:10.486Z,62.70
2023-05-04T20:09:59.337Z,62.30
2023-05-04T20:12:48.271Z,62.80
2023-05-04T20:15:37.058Z,63.40
2023-05-04T20:18:26.148Z,63.70
2023-05-04T20:21:16.763Z,62.50
2023-05-04T20:24:06.057Z,62.80
2023-05-04T20:26:54.844Z,63.50
2023-05-04T20:29:43.514Z,63.70
2023-05-04T20:32:32.369Z,64.50
2023-05-04T20:35:21.150Z,64.50
2023-05-04T20:38:11.348Z,63.70
2023-05-04T20:41:07.048Z,64.50
2023-05-04T20:43:55.893Z,65.20
2023-05-04T20:46:54.007Z,64.80
2023-05-04T20:49:42.884Z,65.50
2023-05-04T20:52:32.076Z,65.20
2023-05-04T20:55:22.445Z,64.80
2023-05-04T20:58:11.671Z,65.50
2023-05-04T21:01:04.797Z,65.20
2023-05-04T21:03:53.780Z,65.80
2023-05-04T21:06:42.514Z,65.10
2023-05-04T21:09:31.351Z,65.80
2023-05-04T21:12:21.457Z,66.10
2023-05-04T21:15:11.521Z,66.40
2023-05-04T21:18:00.385Z,66.40
2023-05-04T21:20:49.425Z,66.00
2023-05-04T21:23:38.422Z,66.10
2023-05-04T21:26:27.185Z,66.20
2023-05-04T21:29:17.276Z,66.50
2023-05-04T21:32:06.935Z,66.60
2023-05-04T21:34:55.614Z,66.50
2023-05-04T21:37:44.409Z,66.70
2023-05-04T21:40:33.349Z,67.10
2023-05-04T21:43:22.065Z,67.20
2023-05-04T21:46:12.893Z,67.60
2023-05-04T21:49:01.755Z,68.20
2023-05-04T21:51:50.543Z,67.70
2023-05-04T21:54:39.305Z,68.20
2023-05-04T21:57:28.058Z,68.20
2023-05-04T22:00:18.960Z,68.20
2023-05-04T22:03:09.098Z,67.90
2023-05-04T22:05:58.871Z,68.80
2023-05-04T22:08:47.617Z,68.30
2023-05-04T22:11:36.392Z,68.30
2023-05-04T22:14:25.043Z,68.60
2023-05-04T22:17:13.858Z,68.80
2023-05-04T22:20:04.099Z,69.20
2023-05-04T22:22:53.493Z,69.60
2023-05-04T22:25:42.494Z,69.80
2023-05-04T22:28:31.291Z,70.00
2023-05-04T22:31:20.374Z,70.10
2023-05-04T22:34:09.186Z,70.00
2023-05-04T22:36:59.210Z,70.10
2023-05-04T22:39:48.068Z,70.30
2023-05-04T22:42:36.805Z,70.70
2023-05-04T22:45:25.516Z,70.80
2023-05-04T22:48:15.164Z,70.80
2023-05-04T22:51:04.065Z,71.20
2023-05-04T22:53:54.142Z,71.10
2023-05-04T22:56:42.996Z,71.50
2023-05-04T22:59:32.354Z,71.70
2023-05-04T23:02:21.469Z,72.00
2023-05-04T23:05:10.790Z,72.20
2023-05-04T23:07:59.786Z,72.10
2023-05-04T23:10:49.923Z,72.30
2023-05-04T23:13:39.034Z,72.60
2023-05-04T23:16:28.002Z,72.20
2023-05-04T23:19:16.799Z,72.20
2023-05-04T23:22:05.937Z,72.60
2023-05-04T23:24:54.675Z,72.60
2023-05-04T23:27:46.454Z,73.00
2023-05-04T23:30:35.197Z,72.10
2023-05-04T23:33:23.828Z,72.00
2023-05-04T23:36:12.574Z,72.40
2023-05-04T23:39:01.441Z,72.10
2023-05-04T23:41:50.545Z,72.80
2023-05-04T23:44:40.681Z,71.30
2023-05-04T23:47:29.395Z,71.50
2023-05-04T23:50:18.412Z,71.10
2023-05-04T23:53:07.050Z,71.10
2023-05-04T23:56:01.926Z,69.60
2023-05-04T23:58:52.147Z,69.80
